sensor_id;sensor_type;location;lat;lon;timestamp;pressure;altitude;pressure_sealevel;temperature;humidity
21109;BME280;10712;52.944;9.098;2022-12-07T00:01:14;101248.34;;;12.08;59.20
21109;BME280;10712;52.944;9.098;2022-12-07T00:03:42;101245.41;;;12.12;59.01
21109;BME280;10712;52.944;9.098;2022-12-07T00:06:10;101242.72;;;12.12;59.08
21109;BME280;10712;52.944;9.098;2022-12-07T00:08:36;101241.13;;;12.10;59.58
21109;BME280;10712;52.944;9.098;2022-12-07T00:11:10;101236.38;;;12.15;59.16
21109;BME280;10712;52.944;9.098;2022-12-07T00:13:37;101233.69;;;12.15;59.16
21109;BME280;10712;52.944;9.098;2022-12-07T00:16:15;101228.16;;;12.18;59.20
21109;BME280;10712;52.944;9.098;2022-12-07T00:18:42;101229.09;;;12.17;59.15
21109;BME280;10712;52.944;9.098;2022-12-07T00:21:13;101224.03;;;12.12;59.29
21109;BME280;10712;52.944;9.098;2022-12-07T00:23:40;101223.16;;;12.12;59.30
21109;BME280;10712;52.944;9.098;2022-12-07T00:26:07;101210.75;;;12.11;59.18
21109;BME280;10712;52.944;9.098;2022-12-07T00:28:34;101212.69;;;12.09;59.39
21109;BME280;10712;52.944;9.098;2022-12-07T00:31:08;101218.03;;;12.09;59.22
21109;BME280;10712;52.944;9.098;2022-12-07T00:33:35;101214.72;;;12.04;59.34
21109;BME280;10712;52.944;9.098;2022-12-07T00:36:03;101209.22;;;12.07;59.19
21109;BME280;10712;52.944;9.098;2022-12-07T00:38:31;101200.63;;;12.02;59.33
21109;BME280;10712;52.944;9.098;2022-12-07T00:40:59;101216.22;;;12.09;59.10
21109;BME280;10712;52.944;9.098;2022-12-07T00:43:25;101209.75;;;11.98;59.28
21109;BME280;10712;52.944;9.098;2022-12-07T00:45:51;101218.09;;;11.92;59.34
21109;BME280;10712;52.944;9.098;2022-12-07T00:48:17;101221.63;;;11.92;59.30
21109;BME280;10712;52.944;9.098;2022-12-07T00:50:42;101215.44;;;11.92;59.05
21109;BME280;10712;52.944;9.098;2022-12-07T00:53:08;101205.34;;;11.97;58.95
21109;BME280;10712;52.944;9.098;2022-12-07T00:55:35;101214.75;;;11.88;58.98
21109;BME280;10712;52.944;9.098;2022-12-07T00:58:01;101217.00;;;11.80;59.18
21109;BME280;10712;52.944;9.098;2022-12-07T01:00:26;101218.19;;;11.74;59.26
21109;BME280;10712;52.944;9.098;2022-12-07T01:02:52;101214.59;;;11.75;58.98
21109;BME280;10712;52.944;9.098;2022-12-07T01:05:18;101214.59;;;11.75;59.01
21109;BME280;10712;52.944;9.098;2022-12-07T01:07:43;101215.41;;;11.76;59.03
21109;BME280;10712;52.944;9.098;2022-12-07T01:10:09;101212.03;;;11.72;59.20
21109;BME280;10712;52.944;9.098;2022-12-07T01:12:35;101213.78;;;11.73;58.98
21109;BME280;10712;52.944;9.098;2022-12-07T01:15:01;101219.94;;;11.75;59.01
21109;BME280;10712;52.944;9.098;2022-12-07T01:17:28;101205.75;;;11.73;59.20
21109;BME280;10712;52.944;9.098;2022-12-07T01:19:53;101207.53;;;11.74;59.07
21109;BME280;10712;52.944;9.098;2022-12-07T01:22:19;101205.59;;;11.76;59.15
21109;BME280;10712;52.944;9.098;2022-12-07T01:24:45;101211.09;;;11.73;59.02
21109;BME280;10712;52.944;9.098;2022-12-07T01:27:13;101211.53;;;11.66;59.00
21109;BME280;10712;52.944;9.098;2022-12-07T01:29:39;101216.44;;;11.73;58.98
21109;BME280;10712;52.944;9.098;2022-12-07T01:32:05;101208.00;;;11.97;58.21
21109;BME280;10712;52.944;9.098;2022-12-07T01:34:31;101199.69;;;12.03;57.84
21109;BME280;10712;52.944;9.098;2022-12-07T01:36:56;101198.72;;;12.04;57.77
21109;BME280;10712;52.944;9.098;2022-12-07T01:39:23;101200.44;;;12.05;57.65
21109;BME280;10712;52.944;9.098;2022-12-07T01:41:49;101195.44;;;12.14;57.25
21109;BME280;10712;52.944;9.098;2022-12-07T01:44:29;101198.38;;;12.10;57.13
21109;BME280;10712;52.944;9.098;2022-12-07T01:47:00;101202.75;;;12.11;57.34
21109;BME280;10712;52.944;9.098;2022-12-07T01:52:23;101204.41;;;12.13;56.92
21109;BME280;10712;52.944;9.098;2022-12-07T01:54:52;101195.59;;;12.11;57.21
21109;BME280;10712;52.944;9.098;2022-12-07T01:57:20;101187.50;;;12.13;56.87
21109;BME280;10712;52.944;9.098;2022-12-07T01:59:48;101185.78;;;12.12;56.83
21109;BME280;10712;52.944;9.098;2022-12-07T02:02:23;101191.47;;;12.06;56.84
21109;BME280;10712;52.944;9.098;2022-12-07T02:04:51;101186.84;;;12.09;56.56
21109;BME280;10712;52.944;9.098;2022-12-07T02:07:17;101186.13;;;12.06;56.55
21109;BME280;10712;52.944;9.098;2022-12-07T02:09:43;101186.13;;;12.06;56.43
21109;BME280;10712;52.944;9.098;2022-12-07T02:12:09;101182.88;;;12.01;56.47
21109;BME280;10712;52.944;9.098;2022-12-07T02:14:34;101184.75;;;11.99;56.43
21109;BME280;10712;52.944;9.098;2022-12-07T02:17:14;101183.38;;;11.92;56.26
21109;BME280;10712;52.944;9.098;2022-12-07T02:20:02;101172.56;;;11.95;56.17
21109;BME280;10712;52.944;9.098;2022-12-07T02:30:45;101178.25;;;11.89;56.06
21109;BME280;10712;52.944;9.098;2022-12-07T02:33:24;101170.97;;;11.91;56.00
21109;BME280;10712;52.944;9.098;2022-12-07T02:36:39;101172.91;;;11.89;55.93
21109;BME280;10712;52.944;9.098;2022-12-07T02:39:00;101168.84;;;11.81;55.99
21109;BME280;10712;52.944;9.098;2022-12-07T02:41:33;101162.72;;;11.79;55.89
21109;BME280;10712;52.944;9.098;2022-12-07T02:44:07;101162.53;;;11.82;56.32
21109;BME280;10712;52.944;9.098;2022-12-07T02:46:38;101166.34;;;11.78;55.71
21109;BME280;10712;52.944;9.098;2022-12-07T02:49:06;101162.91;;;11.76;55.85
21109;BME280;10712;52.944;9.098;2022-12-07T02:51:33;101165.69;;;11.75;55.79
21109;BME280;10712;52.944;9.098;2022-12-07T02:54:11;101161.88;;;11.79;55.96
21109;BME280;10712;52.944;9.098;2022-12-07T03:05:03;101157.56;;;11.76;55.72
21109;BME280;10712;52.944;9.098;2022-12-07T03:07:56;101156.16;;;11.69;55.67
21109;BME280;10712;52.944;9.098;2022-12-07T03:13:16;101158.72;;;11.71;55.66
21109;BME280;10712;52.944;9.098;2022-12-07T03:15:50;101161.47;;;11.69;55.80
21109;BME280;10712;52.944;9.098;2022-12-07T03:18:22;101166.81;;;11.69;55.96
21109;BME280;10712;52.944;9.098;2022-12-07T03:20:51;101172.16;;;11.69;55.87
21109;BME280;10712;52.944;9.098;2022-12-07T03:23:20;101170.47;;;11.68;55.88
21109;BME280;10712;52.944;9.098;2022-12-07T03:25:54;101179.88;;;11.75;55.89
21109;BME280;10712;52.944;9.098;2022-12-07T03:28:24;101177.34;;;11.72;55.81
21109;BME280;10712;52.944;9.098;2022-12-07T03:30:56;101166.66;;;11.72;55.96
21109;BME280;10712;52.944;9.098;2022-12-07T03:33:34;101173.56;;;11.76;55.91
21109;BME280;10712;52.944;9.098;2022-12-07T03:36:15;101166.63;;;11.74;56.01
21109;BME280;10712;52.944;9.098;2022-12-07T03:38:54;101178.56;;;11.67;56.19
21109;BME280;10712;52.944;9.098;2022-12-07T03:41:27;101171.06;;;11.73;55.98
21109;BME280;10712;52.944;9.098;2022-12-07T03:43:54;101173.72;;;11.73;55.93
21109;BME280;10712;52.944;9.098;2022-12-07T03:46:36;101163.06;;;11.73;55.92
21109;BME280;10712;52.944;9.098;2022-12-07T03:49:26;101160.63;;;11.69;55.97
21109;BME280;10712;52.944;9.098;2022-12-07T03:54:45;101157.41;;;11.79;55.68
21109;BME280;10712;52.944;9.098;2022-12-07T03:57:15;101162.72;;;11.79;55.72
21109;BME280;10712;52.944;9.098;2022-12-07T03:59:42;101168.22;;;11.76;55.64
21109;BME280;10712;52.944;9.098;2022-12-07T04:02:11;101167.06;;;11.82;55.70
21109;BME280;10712;52.944;9.098;2022-12-07T04:04:38;101161.59;;;11.83;55.63
21109;BME280;10712;52.944;9.098;2022-12-07T04:07:04;101162.22;;;11.89;55.53
21109;BME280;10712;52.944;9.098;2022-12-07T04:09:30;101176.25;;;11.76;56.05
21109;BME280;10712;52.944;9.098;2022-12-07T04:11:55;101172.13;;;11.87;55.60
21109;BME280;10712;52.944;9.098;2022-12-07T04:14:21;101163.75;;;11.93;55.59
21109;BME280;10712;52.944;9.098;2022-12-07T04:16:52;101171.34;;;11.84;55.95
21109;BME280;10712;52.944;9.098;2022-12-07T04:19:19;101174.78;;;11.87;55.84
21109;BME280;10712;52.944;9.098;2022-12-07T04:21:45;101166.78;;;11.87;55.87
21109;BME280;10712;52.944;9.098;2022-12-07T04:24:13;101169.09;;;11.93;55.56
21109;BME280;10712;52.944;9.098;2022-12-07T04:26:40;101171.69;;;11.94;55.67
21109;BME280;10712;52.944;9.098;2022-12-07T04:29:06;101161.88;;;11.95;55.67
21109;BME280;10712;52.944;9.098;2022-12-07T04:31:31;101158.25;;;11.96;55.67
21109;BME280;10712;52.944;9.098;2022-12-07T04:33:57;101157.19;;;11.98;55.62
21109;BME280;10712;52.944;9.098;2022-12-07T04:36:23;101148.25;;;11.99;55.67
21109;BME280;10712;52.944;9.098;2022-12-07T04:38:49;101147.56;;;11.96;55.68
21109;BME280;10712;52.944;9.098;2022-12-07T04:41:14;101145.66;;;11.98;55.61
21109;BME280;10712;52.944;9.098;2022-12-07T04:43:40;101139.56;;;11.96;55.80
21109;BME280;10712;52.944;9.098;2022-12-07T04:46:06;101147.75;;;11.93;55.85
21109;BME280;10712;52.944;9.098;2022-12-07T04:48:31;101151.19;;;11.95;55.67
21109;BME280;10712;52.944;9.098;2022-12-07T04:50:57;101151.19;;;11.95;55.49
21109;BME280;10712;52.944;9.098;2022-12-07T04:53:23;101155.81;;;11.91;55.67
21109;BME280;10712;52.944;9.098;2022-12-07T04:55:48;101153.25;;;11.90;55.83
21109;BME280;10712;52.944;9.098;2022-12-07T04:58:14;101160.31;;;11.91;55.64
21109;BME280;10712;52.944;9.098;2022-12-07T05:00:40;101154.81;;;11.94;55.69
21109;BME280;10712;52.944;9.098;2022-12-07T05:03:06;101156.69;;;11.92;55.62
21109;BME280;10712;52.944;9.098;2022-12-07T05:05:32;101154.81;;;11.94;55.66
21109;BME280;10712;52.944;9.098;2022-12-07T05:07:58;101154.97;;;11.91;55.78
21109;BME280;10712;52.944;9.098;2022-12-07T05:10:24;101155.81;;;11.91;55.79
21109;BME280;10712;52.944;9.098;2022-12-07T05:12:49;101151.00;;;11.98;55.51
21109;BME280;10712;52.944;9.098;2022-12-07T05:15:15;101146.72;;;11.95;55.47
21109;BME280;10712;52.944;9.098;2022-12-07T05:17:41;101158.56;;;11.90;55.68
21109;BME280;10712;52.944;9.098;2022-12-07T05:20:08;101151.69;;;11.86;55.89
21109;BME280;10712;52.944;9.098;2022-12-07T05:22:34;101155.16;;;11.88;55.65
21109;BME280;10712;52.944;9.098;2022-12-07T05:25:00;101159.13;;;11.80;55.81
21109;BME280;10712;52.944;9.098;2022-12-07T05:27:25;101158.78;;;11.87;55.49
21109;BME280;10712;52.944;9.098;2022-12-07T05:29:52;101149.97;;;11.84;55.59
21109;BME280;10712;52.944;9.098;2022-12-07T05:32:18;101160.84;;;11.81;55.87
21109;BME280;10712;52.944;9.098;2022-12-07T05:34:44;101161.78;;;11.80;55.79
21109;BME280;10712;52.944;9.098;2022-12-07T05:37:13;101162.03;;;11.76;55.63
21109;BME280;10712;52.944;9.098;2022-12-07T05:39:39;101163.94;;;11.74;55.85
21109;BME280;10712;52.944;9.098;2022-12-07T05:42:06;101160.22;;;11.76;55.58
21109;BME280;10712;52.944;9.098;2022-12-07T05:44:41;101157.56;;;11.76;55.71
21109;BME280;10712;52.944;9.098;2022-12-07T05:47:08;101158.81;;;11.69;55.77
21109;BME280;10712;52.944;9.098;2022-12-07T05:49:33;101152.53;;;11.70;55.71
21109;BME280;10712;52.944;9.098;2022-12-07T05:51:59;101154.44;;;11.68;55.50
21109;BME280;10712;52.944;9.098;2022-12-07T05:54:25;101149.88;;;11.70;55.54
21109;BME280;10712;52.944;9.098;2022-12-07T05:56:50;101148.25;;;11.68;55.68
21109;BME280;10712;52.944;9.098;2022-12-07T05:59:16;101143.22;;;11.62;55.71
21109;BME280;10712;52.944;9.098;2022-12-07T06:01:58;101141.28;;;11.65;55.66
21109;BME280;10712;52.944;9.098;2022-12-07T06:04:26;101139.53;;;11.64;55.50
21109;BME280;10712;52.944;9.098;2022-12-07T06:06:52;101143.34;;;11.60;55.48
21109;BME280;10712;52.944;9.098;2022-12-07T06:09:20;101144.28;;;11.59;55.59
21109;BME280;10712;52.944;9.098;2022-12-07T06:11:46;101161.25;;;11.58;55.69
21109;BME280;10712;52.944;9.098;2022-12-07T06:14:31;101162.19;;;11.57;55.75
21109;BME280;10712;52.944;9.098;2022-12-07T06:16:57;101164.84;;;11.57;55.74
21109;BME280;10712;52.944;9.098;2022-12-07T06:19:22;101164.25;;;11.52;55.73
21109;BME280;10712;52.944;9.098;2022-12-07T06:21:48;101155.66;;;11.47;55.97
21109;BME280;10712;52.944;9.098;2022-12-07T06:24:15;101167.19;;;11.48;55.85
21109;BME280;10712;52.944;9.098;2022-12-07T06:26:41;101163.88;;;11.27;56.47
21109;BME280;10712;52.944;9.098;2022-12-07T06:29:08;101167.66;;;11.23;56.67
21109;BME280;10712;52.944;9.098;2022-12-07T06:31:33;101174.84;;;11.21;56.77
21109;BME280;10712;52.944;9.098;2022-12-07T06:34:01;101165.91;;;11.22;56.69
21109;BME280;10712;52.944;9.098;2022-12-07T06:36:28;101169.38;;;11.24;56.72
21109;BME280;10712;52.944;9.098;2022-12-07T06:38:55;101174.72;;;11.24;56.82
21109;BME280;10712;52.944;9.098;2022-12-07T06:41:20;101172.97;;;11.23;56.69
21109;BME280;10712;52.944;9.098;2022-12-07T06:43:46;101179.09;;;11.25;56.73
21109;BME280;10712;52.944;9.098;2022-12-07T06:46:13;101176.59;;;11.22;56.85
21109;BME280;10712;52.944;9.098;2022-12-07T06:48:40;101181.06;;;11.21;56.94
21109;BME280;10712;52.944;9.098;2022-12-07T06:51:06;101185.38;;;11.24;56.68
21109;BME280;10712;52.944;9.098;2022-12-07T06:53:32;101184.34;;;11.26;56.78
21109;BME280;10712;52.944;9.098;2022-12-07T06:55:58;101186.50;;;11.20;57.01
21109;BME280;10712;52.944;9.098;2022-12-07T06:58:24;101180.19;;;11.21;57.06
21109;BME280;10712;52.944;9.098;2022-12-07T07:00:49;101180.19;;;11.21;57.01
21109;BME280;10712;52.944;9.098;2022-12-07T07:03:16;101168.50;;;11.23;57.02
21109;BME280;10712;52.944;9.098;2022-12-07T07:05:42;101169.38;;;11.24;57.15
21109;BME280;10712;52.944;9.098;2022-12-07T07:08:09;101165.75;;;11.25;57.08
21109;BME280;10712;52.944;9.098;2022-12-07T07:10:35;101164.91;;;11.24;57.23
21109;BME280;10712;52.944;9.098;2022-12-07T07:13:01;101165.75;;;11.25;57.12
21109;BME280;10712;52.944;9.098;2022-12-07T07:15:27;101162.50;;;11.20;57.44
21109;BME280;10712;52.944;9.098;2022-12-07T07:17:52;101169.63;;;11.35;56.95
21109;BME280;10712;52.944;9.098;2022-12-07T07:20:18;101165.44;;;11.31;57.08
21109;BME280;10712;52.944;9.098;2022-12-07T07:22:44;101165.59;;;11.28;57.06
21109;BME280;10712;52.944;9.098;2022-12-07T07:25:10;101167.97;;;11.17;57.25
21109;BME280;10712;52.944;9.098;2022-12-07T07:27:35;101169.38;;;11.24;57.08
21109;BME280;10712;52.944;9.098;2022-12-07T07:30:01;101171.09;;;11.25;56.88
21109;BME280;10712;52.944;9.098;2022-12-07T07:32:27;101182.09;;;11.19;57.26
21109;BME280;10712;52.944;9.098;2022-12-07T07:34:53;101185.28;;;11.25;57.00
21109;BME280;10712;52.944;9.098;2022-12-07T07:37:19;101186.75;;;11.31;56.85
21109;BME280;10712;52.944;9.098;2022-12-07T07:39:44;101182.97;;;11.35;56.79
21109;BME280;10712;52.944;9.098;2022-12-07T07:42:10;101189.28;;;11.34;56.57
21109;BME280;10712;52.944;9.098;2022-12-07T07:44:37;101179.56;;;11.33;56.79
21109;BME280;10712;52.944;9.098;2022-12-07T07:47:03;101182.97;;;11.35;56.73
21109;BME280;10712;52.944;9.098;2022-12-07T07:49:29;101184.19;;;11.29;56.81
21109;BME280;10712;52.944;9.098;2022-12-07T07:51:55;101173.00;;;11.38;56.67
21109;BME280;10712;52.944;9.098;2022-12-07T07:54:20;101180.22;;;11.36;56.54
21109;BME280;10712;52.944;9.098;2022-12-07T07:56:46;101172.31;;;11.35;56.61
21109;BME280;10712;52.944;9.098;2022-12-07T07:59:12;101176.53;;;11.39;56.59
21109;BME280;10712;52.944;9.098;2022-12-07T08:01:37;101170.28;;;11.40;56.59
21109;BME280;10712;52.944;9.098;2022-12-07T08:04:03;101181.44;;;11.31;56.45
21109;BME280;10712;52.944;9.098;2022-12-07T08:06:29;101181.28;;;11.34;56.62
21109;BME280;10712;52.944;9.098;2022-12-07T08:08:54;101181.09;;;11.37;56.41
21109;BME280;10712;52.944;9.098;2022-12-07T08:11:20;101183.16;;;11.32;56.45
21109;BME280;10712;52.944;9.098;2022-12-07T08:13:46;101188.50;;;11.32;56.61
21109;BME280;10712;52.944;9.098;2022-12-07T08:16:12;101188.66;;;11.29;56.58
21109;BME280;10712;52.944;9.098;2022-12-07T08:18:39;101195.72;;;11.30;56.69
21109;BME280;10712;52.944;9.098;2022-12-07T08:21:06;101185.81;;;11.32;56.75
21109;BME280;10712;52.944;9.098;2022-12-07T08:23:33;101189.44;;;11.31;56.55
21109;BME280;10712;52.944;9.098;2022-12-07T08:26:04;101181.44;;;11.31;56.51
21109;BME280;10712;52.944;9.098;2022-12-07T08:28:30;101181.16;;;11.35;56.48
21109;BME280;10712;52.944;9.098;2022-12-07T08:31:00;101180.41;;;11.33;56.62
21109;BME280;10712;52.944;9.098;2022-12-07T08:33:26;101191.69;;;11.38;56.40
21109;BME280;10712;52.944;9.098;2022-12-07T08:35:51;101190.75;;;11.55;55.96
21109;BME280;10712;52.944;9.098;2022-12-07T08:38:17;101184.66;;;11.53;55.98
21109;BME280;10712;52.944;9.098;2022-12-07T08:40:43;101186.13;;;11.59;55.94
21109;BME280;10712;52.944;9.098;2022-12-07T08:43:08;101193.19;;;11.60;55.64
21109;BME280;10712;52.944;9.098;2022-12-07T08:45:34;101192.47;;;11.56;55.69
21109;BME280;10712;52.944;9.098;2022-12-07T08:48:10;101186.97;;;11.59;55.77
21109;BME280;10712;52.944;9.098;2022-12-07T08:50:37;101185.09;;;11.61;55.61
21109;BME280;10712;52.944;9.098;2022-12-07T08:53:04;101193.19;;;11.60;55.50
21109;BME280;10712;52.944;9.098;2022-12-07T08:55:33;101190.50;;;11.44;55.86
21109;BME280;10712;52.944;9.098;2022-12-07T08:57:59;101187.66;;;11.47;55.91
21109;BME280;10712;52.944;9.098;2022-12-07T09:00:25;101195.22;;;11.39;56.14
21109;BME280;10712;52.944;9.098;2022-12-07T09:02:51;101189.81;;;11.40;56.33
21109;BME280;10712;52.944;9.098;2022-12-07T09:05:17;101195.22;;;11.39;56.24
21109;BME280;10712;52.944;9.098;2022-12-07T09:07:44;101204.94;;;11.40;56.36
21109;BME280;10712;52.944;9.098;2022-12-07T09:10:11;101190.41;;;11.45;56.20
21109;BME280;10712;52.944;9.098;2022-12-07T09:12:37;101200.81;;;11.50;56.23
21109;BME280;10712;52.944;9.098;2022-12-07T09:15:03;101200.66;;;11.53;56.48
21109;BME280;10712;52.944;9.098;2022-12-07T09:17:32;101202.81;;;11.47;56.59
21109;BME280;10712;52.944;9.098;2022-12-07T09:19:58;101206.75;;;11.55;56.64
21109;BME280;10712;52.944;9.098;2022-12-07T09:22:28;101208.94;;;11.64;56.44
21109;BME280;10712;52.944;9.098;2022-12-07T09:24:54;101210.56;;;11.67;56.41
21109;BME280;10712;52.944;9.098;2022-12-07T09:31:58;101201.63;;;11.68;56.41
21109;BME280;10712;52.944;9.098;2022-12-07T09:34:24;101192.38;;;11.75;56.21
21109;BME280;10712;52.944;9.098;2022-12-07T09:36:52;101193.91;;;11.79;56.08
21109;BME280;10712;52.944;9.098;2022-12-07T09:39:17;101190.63;;;11.74;55.98
21109;BME280;10712;52.944;9.098;2022-12-07T09:41:44;101185.03;;;11.78;55.97
21109;BME280;10712;52.944;9.098;2022-12-07T09:44:23;101196.50;;;11.80;55.89
21109;BME280;10712;52.944;9.098;2022-12-07T09:46:50;101190.22;;;11.81;56.05
21109;BME280;10712;52.944;9.098;2022-12-07T09:49:21;101192.03;;;11.81;55.96
21109;BME280;10712;52.944;9.098;2022-12-07T09:52:20;101192.19;;;11.78;56.00
21109;BME280;10712;52.944;9.098;2022-12-07T09:54:51;101205.31;;;11.65;56.02
21109;BME280;10712;52.944;9.098;2022-12-07T09:57:25;101204.94;;;11.89;55.69
21109;BME280;10712;52.944;9.098;2022-12-07T10:00:03;101191.81;;;11.84;55.61
21109;BME280;10712;52.944;9.098;2022-12-07T10:02:39;101187.34;;;11.84;55.68
21109;BME280;10712;52.944;9.098;2022-12-07T10:05:14;101184.25;;;11.92;55.62
21109;BME280;10712;52.944;9.098;2022-12-07T10:07:41;101178.63;;;11.97;55.62
21109;BME280;10712;52.944;9.098;2022-12-07T10:10:15;101183.03;;;11.98;55.54
21109;BME280;10712;52.944;9.098;2022-12-07T10:13:02;101172.47;;;11.96;55.69
21109;BME280;10712;52.944;9.098;2022-12-07T10:18:32;101173.56;;;12.08;55.29
21109;BME280;10712;52.944;9.098;2022-12-07T10:21:12;101164.78;;;12.06;55.37
21109;BME280;10712;52.944;9.098;2022-12-07T10:28:56;101177.19;;;12.07;55.06
21109;BME280;10712;52.944;9.098;2022-12-07T10:31:23;101171.41;;;11.99;54.93
21109;BME280;10712;52.944;9.098;2022-12-07T10:33:55;101174.16;;;11.97;55.00
21109;BME280;10712;52.944;9.098;2022-12-07T10:36:38;101176.31;;;11.91;55.29
21109;BME280;10712;52.944;9.098;2022-12-07T10:39:20;101187.72;;;11.94;55.07
21109;BME280;10712;52.944;9.098;2022-12-07T10:41:57;101180.72;;;11.92;55.32
21109;BME280;10712;52.944;9.098;2022-12-07T10:44:29;101184.75;;;11.99;55.28
21109;BME280;10712;52.944;9.098;2022-12-07T10:49:53;101172.19;;;12.01;55.32
21109;BME280;10712;52.944;9.098;2022-12-07T10:52:53;101168.22;;;12.08;55.21
21109;BME280;10712;52.944;9.098;2022-12-07T11:01:41;101162.69;;;12.11;55.29
21109;BME280;10712;52.944;9.098;2022-12-07T11:16:48;101147.44;;;12.13;55.02
21109;BME280;10712;52.944;9.098;2022-12-07T11:20:05;101141.31;;;12.11;54.85
21109;BME280;10712;52.944;9.098;2022-12-07T11:25:35;101140.13;;;12.16;54.91
21109;BME280;10712;52.944;9.098;2022-12-07T11:33:46;101138.91;;;12.22;54.79
21109;BME280;10712;52.944;9.098;2022-12-07T11:36:43;101144.03;;;12.25;54.82
21109;BME280;10712;52.944;9.098;2022-12-07T11:41:54;101133.41;;;12.39;54.79
21109;BME280;10712;52.944;9.098;2022-12-07T11:44:33;101133.03;;;12.45;54.82
21109;BME280;10712;52.944;9.098;2022-12-07T11:47:26;101126.38;;;12.52;54.72
21109;BME280;10712;52.944;9.098;2022-12-07T11:50:18;101129.81;;;12.54;54.48
21109;BME280;10712;52.944;9.098;2022-12-07T11:52:59;101122.75;;;12.53;54.60
21109;BME280;10712;52.944;9.098;2022-12-07T11:58:38;101120.84;;;12.55;54.48
21109;BME280;10712;52.944;9.098;2022-12-07T12:01:18;101111.56;;;12.47;54.56
21109;BME280;10712;52.944;9.098;2022-12-07T12:06:24;101098.53;;;12.71;54.00
21109;BME280;10712;52.944;9.098;2022-12-07T12:09:13;101093.38;;;12.68;54.44
21109;BME280;10712;52.944;9.098;2022-12-07T12:17:59;101086.91;;;12.86;54.28
21109;BME280;10712;52.944;9.098;2022-12-07T12:20:44;101088.44;;;12.90;54.23
21109;BME280;10712;52.944;9.098;2022-12-07T12:24:05;101091.19;;;12.88;54.75
21109;BME280;10712;52.944;9.098;2022-12-07T12:26:21;101091.66;;;12.95;54.44
21109;BME280;10712;52.944;9.098;2022-12-07T12:29:06;101094.06;;;12.99;54.24
21109;BME280;10712;52.944;9.098;2022-12-07T12:31:40;101093.69;;;13.06;54.54
21109;BME280;10712;52.944;9.098;2022-12-07T12:36:55;101080.72;;;13.14;54.61
21109;BME280;10712;52.944;9.098;2022-12-07T12:39:21;101076.38;;;13.11;54.39
21109;BME280;10712;52.944;9.098;2022-12-07T12:41:55;101075.25;;;13.15;54.46
21109;BME280;10712;52.944;9.098;2022-12-07T12:50:32;101058.91;;;13.06;53.99
21109;BME280;10712;52.944;9.098;2022-12-07T12:56:25;101044.28;;;13.11;53.72
21109;BME280;10712;52.944;9.098;2022-12-07T12:59:28;101044.28;;;13.11;53.62
21109;BME280;10712;52.944;9.098;2022-12-07T13:10:26;101024.88;;;13.08;53.64
21109;BME280;10712;52.944;9.098;2022-12-07T13:15:56;101028.03;;;13.14;53.47
21109;BME280;10712;52.944;9.098;2022-12-07T13:18:41;101037.22;;;13.10;53.42
21109;BME280;10712;52.944;9.098;2022-12-07T13:26:39;101096.22;;;13.07;53.47
21109;BME280;10712;52.944;9.098;2022-12-07T13:29:20;101080.94;;;12.52;51.50
21109;BME280;10712;52.944;9.098;2022-12-07T13:31:56;101059.44;;;12.26;51.05
21109;BME280;10712;52.944;9.098;2022-12-07T13:34:40;101056.31;;;12.03;51.16
21109;BME280;10712;52.944;9.098;2022-12-07T13:37:23;101062.66;;;11.87;51.57
21109;BME280;10712;52.944;9.098;2022-12-07T13:39:52;101062.16;;;11.80;51.78
21109;BME280;10712;52.944;9.098;2022-12-07T13:42:31;101050.78;;;11.76;51.74
21109;BME280;10712;52.944;9.098;2022-12-07T13:44:59;101051.47;;;11.64;51.95
21109;BME280;10712;52.944;9.098;2022-12-07T13:47:43;101044.63;;;11.44;52.83
21109;BME280;10712;52.944;9.098;2022-12-07T13:50:30;101040.56;;;11.37;52.94
21109;BME280;10712;52.944;9.098;2022-12-07T13:53:00;101047.72;;;11.37;53.06
21109;BME280;10712;52.944;9.098;2022-12-07T13:55:28;101053.75;;;11.25;53.08
21109;BME280;10712;52.944;9.098;2022-12-07T13:57:55;101051.31;;;11.20;53.43
21109;BME280;10712;52.944;9.098;2022-12-07T14:00:25;101055.81;;;11.20;53.57
21109;BME280;10712;52.944;9.098;2022-12-07T14:05:32;101057.53;;;11.21;53.60
21109;BME280;10712;52.944;9.098;2022-12-07T14:10:54;101047.72;;;11.21;53.62
21109;BME280;10712;52.944;9.098;2022-12-07T14:14:01;101052.03;;;11.24;53.66
21109;BME280;10712;52.944;9.098;2022-12-07T14:16:35;101057.19;;;11.27;53.76
21109;BME280;10712;52.944;9.098;2022-12-07T14:19:42;101060.81;;;11.26;54.01
21109;BME280;10712;52.944;9.098;2022-12-07T14:24:44;101051.16;;;11.39;53.64
21109;BME280;10712;52.944;9.098;2022-12-07T14:27:23;101041.34;;;11.39;54.20
21109;BME280;10712;52.944;9.098;2022-12-07T14:29:51;101055.28;;;11.44;54.04
21109;BME280;10712;52.944;9.098;2022-12-07T14:32:25;101052.19;;;11.36;54.66
21109;BME280;10712;52.944;9.098;2022-12-07T14:35:12;101049.25;;;11.41;54.71
21109;BME280;10712;52.944;9.098;2022-12-07T14:37:41;101035.81;;;11.58;54.67
21109;BME280;10712;52.944;9.098;2022-12-07T14:40:16;101033.50;;;11.52;54.88
21109;BME280;10712;52.944;9.098;2022-12-07T14:42:43;101031.78;;;11.51;55.00
21109;BME280;10712;52.944;9.098;2022-12-07T14:45:22;101020.94;;;11.54;55.03
21109;BME280;10712;52.944;9.098;2022-12-07T14:47:49;101009.13;;;11.58;55.01
21109;BME280;10712;52.944;9.098;2022-12-07T14:50:18;101023.22;;;11.76;54.78
21109;BME280;10712;52.944;9.098;2022-12-07T14:52:56;101037.91;;;11.53;55.07
21109;BME280;10712;52.944;9.098;2022-12-07T14:55:30;101039.63;;;11.54;55.03
21109;BME280;10712;52.944;9.098;2022-12-07T14:57:57;101041.16;;;11.58;54.93
21109;BME280;10712;52.944;9.098;2022-12-07T15:00:26;101036.69;;;11.59;54.99
21109;BME280;10712;52.944;9.098;2022-12-07T15:02:52;101038.50;;;11.58;55.12
21109;BME280;10712;52.944;9.098;2022-12-07T15:05:19;101041.16;;;11.58;55.16
21109;BME280;10712;52.944;9.098;2022-12-07T15:07:46;101045.13;;;11.51;55.23